createdAt,value
2018-05-04T00:00:21.792Z,95229
2018-05-04T00:02:49.946Z,95231
2018-05-04T00:05:18.065Z,95217
2018-05-04T00:07:46.180Z,95231
2018-05-04T00:10:14.831Z,95233
2018-05-04T00:12:43.044Z,95226
2018-05-04T00:15:11.206Z,95229
2018-05-04T00:17:39.290Z,95223
2018-05-04T00:20:07.770Z,95228
2018-05-04T00:22:36.349Z,95237
2018-05-04T00:25:04.479Z,95230
2018-05-04T00:27:32.603Z,95234
2018-05-04T00:30:00.828Z,95239
2018-05-04T00:32:29.022Z,95244
2018-05-04T00:34:57.127Z,95240
2018-05-04T00:37:25.287Z,95242
2018-05-04T00:39:53.445Z,95241
2018-05-04T00:42:21.586Z,95245
2018-05-04T00:44:49.683Z,95245
2018-05-04T00:47:17.788Z,95242
2018-05-04T00:49:45.913Z,95235
2018-05-04T00:52:14.052Z,95244
2018-05-04T00:54:42.983Z,95251
2018-05-04T00:57:11.091Z,95250
2018-05-04T00:59:39.189Z,95251
2018-05-04T01:02:07.297Z,95262
2018-05-04T01:04:35.405Z,95253
2018-05-04T01:07:03.549Z,95250
2018-05-04T01:09:31.753Z,95239
2018-05-04T01:11:59.997Z,95240
2018-05-04T01:14:28.220Z,95241
2018-05-04T01:16:56.434Z,95249
2018-05-04T01:19:24.739Z,95250
2018-05-04T01:21:52.888Z,95251
2018-05-04T01:24:21.032Z,95234
2018-05-04T01:26:49.122Z,95236
2018-05-04T01:29:17.304Z,95240
2018-05-04T01:31:45.414Z,95238
2018-05-04T01:34:13.520Z,95246
2018-05-04T01:36:42.410Z,95241
2018-05-04T01:39:10.536Z,95234
2018-05-04T01:41:38.711Z,95236
2018-05-04T01:44:06.835Z,95244
2018-05-04T01:46:34.928Z,95238
2018-05-04T01:49:03.057Z,95237
2018-05-04T01:51:31.177Z,95241
2018-05-04T01:53:59.285Z,95236
2018-05-04T01:56:27.470Z,95246
2018-05-04T01:58:55.727Z,95247
2018-05-04T02:01:23.945Z,95246
2018-05-04T02:03:52.167Z,95241
2018-05-04T02:06:20.649Z,95242
2018-05-04T02:08:48.773Z,95256
2018-05-04T02:11:16.989Z,95241
2018-05-04T02:13:45.185Z,95240
2018-05-04T02:16:13.341Z,95246
2018-05-04T02:18:41.464Z,95249
2018-05-04T02:21:09.600Z,95258
2018-05-04T02:23:37.708Z,95255
2018-05-04T02:26:05.854Z,95247
2018-05-04T02:28:34.740Z,95247
2018-05-04T02:31:02.840Z,95245
2018-05-04T02:33:30.982Z,95240
2018-05-04T02:35:59.102Z,95245
2018-05-04T02:38:27.229Z,95242
2018-05-04T02:40:55.334Z,95247
2018-05-04T02:43:24.270Z,95261
2018-05-04T02:45:52.415Z,95257
2018-05-04T02:48:20.570Z,95262
2018-05-04T02:50:50.301Z,95264
2018-05-04T02:53:18.420Z,95254
2018-05-04T02:55:46.534Z,95257
2018-05-04T02:58:14.645Z,95265
2018-05-04T03:00:42.871Z,95259
2018-05-04T03:03:11.115Z,95261
2018-05-04T03:05:39.239Z,95259
2018-05-04T03:08:07.393Z,95254
2018-05-04T03:10:35.527Z,95259
2018-05-04T03:13:03.665Z,95259
2018-05-04T03:15:31.757Z,95253
2018-05-04T03:18:01.874Z,95250
2018-05-04T03:20:29.983Z,95258
2018-05-04T03:22:58.095Z,95256
2018-05-04T03:25:26.216Z,95261
2018-05-04T03:27:54.337Z,95253
2018-05-04T03:30:23.290Z,95258
2018-05-04T03:32:51.409Z,95267
2018-05-04T03:35:19.525Z,95266
2018-05-04T03:37:47.613Z,95265
2018-05-04T03:40:15.808Z,95265
2018-05-04T03:42:44.095Z,95260
2018-05-04T03:45:12.327Z,95273
2018-05-04T03:47:40.551Z,95265
2018-05-04T03:50:08.816Z,95270
2018-05-04T03:52:36.957Z,95273
2018-05-04T03:55:05.074Z,95266
2018-05-04T03:57:50.946Z,95274
2018-05-04T04:03:45.254Z,95271
2018-05-04T04:06:13.390Z,95277
2018-05-04T04:08:41.617Z,95271
2018-05-04T04:11:09.784Z,95286
2018-05-04T04:13:37.935Z,95282
2018-05-04T04:16:06.031Z,95290
2018-05-04T04:18:34.169Z,95280
2018-05-04T04:21:02.287Z,95281
2018-05-04T04:23:30.395Z,95293
2018-05-04T04:25:58.521Z,95287
2018-05-04T04:28:26.622Z,95289
2018-05-04T04:30:54.760Z,95287
2018-05-04T04:33:24.173Z,95297
2018-05-04T04:35:52.343Z,95294
2018-05-04T04:38:20.519Z,95284
2018-05-04T04:40:48.688Z,95293
2018-05-04T04:43:16.866Z,95295
2018-05-04T04:45:44.978Z,95299
2018-05-04T04:48:13.106Z,95298
2018-05-04T04:50:41.253Z,95303
2018-05-04T04:53:09.370Z,95306
2018-05-04T04:55:37.470Z,95313
2018-05-04T04:58:05.642Z,95308
2018-05-04T05:00:34.544Z,95302
2018-05-04T05:03:02.672Z,95313
2018-05-04T05:05:30.804Z,95312
2018-05-04T05:07:58.906Z,95315
2018-05-04T05:10:27.039Z,95319
2018-05-04T05:12:55.154Z,95316
2018-05-04T05:15:23.336Z,95320
2018-05-04T05:17:51.471Z,95319
2018-05-04T05:20:19.723Z,95317
2018-05-04T05:22:47.857Z,95316
2018-05-04T05:25:15.997Z,95314
2018-05-04T05:27:44.125Z,95318
2018-05-04T05:30:12.298Z,95323
2018-05-04T05:32:40.454Z,95335
2018-05-04T05:35:08.551Z,95340
2018-05-04T05:37:37.430Z,95333
2018-05-04T05:40:05.547Z,95342
2018-05-04T05:42:33.667Z,95338
2018-05-04T05:45:01.798Z,95343
2018-05-04T05:47:29.904Z,95341
2018-05-04T05:49:58.166Z,95343
2018-05-04T05:52:26.194Z,95337
2018-05-04T05:54:54.387Z,95336
2018-05-04T05:57:22.516Z,95344
2018-05-04T05:59:50.789Z,95340
2018-05-04T06:02:18.971Z,95341
2018-05-04T06:04:47.163Z,95343
2018-05-04T06:07:15.265Z,95340
2018-05-04T06:09:43.394Z,95342
2018-05-04T06:12:11.504Z,95349
2018-05-04T06:14:39.617Z,95366
2018-05-04T06:17:07.758Z,95346
2018-05-04T06:19:35.874Z,95356
2018-05-04T06:22:04.042Z,95351
2018-05-04T06:24:32.177Z,95346
2018-05-04T06:27:00.338Z,95356
2018-05-04T06:29:28.449Z,95355
2018-05-04T06:31:57.286Z,95358
2018-05-04T06:34:25.724Z,95358
2018-05-04T06:36:53.855Z,95358
2018-05-04T06:39:21.967Z,95359
2018-05-04T06:41:50.083Z,95351
2018-05-04T06:44:18.310Z,95350
2018-05-04T06:46:46.496Z,95357
2018-05-04T06:49:14.735Z,95350
2018-05-04T06:51:43.011Z,95358
2018-05-04T06:54:11.226Z,95365
2018-05-04T06:56:39.504Z,95356
2018-05-04T06:59:07.722Z,95353
2018-05-04T07:01:35.972Z,95354
2018-05-04T07:04:04.301Z,95356
2018-05-04T07:06:33.827Z,95353
2018-05-04T07:09:01.988Z,95359
2018-05-04T07:11:30.925Z,95362
2018-05-04T07:13:59.047Z,95370
2018-05-04T07:16:27.186Z,95367
2018-05-04T07:18:55.292Z,95364
2018-05-04T07:21:23.404Z,95378
2018-05-04T07:23:51.508Z,95378
2018-05-04T07:26:19.639Z,95381
2018-05-04T07:28:47.821Z,95367
2018-05-04T07:31:15.908Z,95370
2018-05-04T07:33:44.172Z,95364
2018-05-04T07:36:12.378Z,95367
2018-05-04T07:38:40.612Z,95365
2018-05-04T07:41:08.826Z,95372
2018-05-04T07:43:36.960Z,95372
2018-05-04T07:46:05.132Z,95365
2018-05-04T07:48:33.271Z,95366
2018-05-04T07:51:02.173Z,95364
2018-05-04T07:53:30.270Z,95363
2018-05-04T07:55:58.413Z,95364
2018-05-04T07:58:26.619Z,95372
2018-05-04T08:00:54.836Z,95383
2018-05-04T08:03:23.312Z,95368
2018-05-04T08:05:51.420Z,95374
2018-05-04T08:08:19.566Z,95369
2018-05-04T08:10:47.697Z,95365
2018-05-04T08:13:15.818Z,95371
2018-05-04T08:15:44.090Z,95377
2018-05-04T08:18:12.220Z,95385
2018-05-04T08:20:40.386Z,95380
2018-05-04T08:23:08.495Z,95382
2018-05-04T08:25:36.601Z,95394
2018-05-04T08:28:04.704Z,95394
2018-05-04T08:30:32.843Z,95393
2018-05-04T08:33:00.997Z,95384
2018-05-04T08:35:29.940Z,95387
2018-05-04T08:37:58.031Z,95387
2018-05-04T08:40:26.197Z,95391
2018-05-04T08:42:58.392Z,95394
2018-05-04T08:45:26.424Z,95389
2018-05-04T08:47:54.541Z,95387
2018-05-04T08:50:22.675Z,95385
2018-05-04T08:52:50.783Z,95373
2018-05-04T08:55:18.904Z,95389
2018-05-04T08:57:47.604Z,95390
2018-05-04T09:00:15.730Z,95397
2018-05-04T09:02:45.197Z,95383
2018-05-04T09:05:13.490Z,95385
2018-05-04T09:07:41.762Z,95389
2018-05-04T09:10:09.869Z,95394
2018-05-04T09:12:38.026Z,95391
2018-05-04T09:15:06.234Z,95401
2018-05-04T09:17:34.441Z,95399
2018-05-04T09:20:03.163Z,95398
2018-05-04T09:22:32.053Z,95395
2018-05-04T09:25:00.183Z,95393
2018-05-04T09:27:28.304Z,95402
2018-05-04T09:29:56.427Z,95401
2018-05-04T09:32:24.557Z,95396
2018-05-04T09:34:53.459Z,95401
2018-05-04T09:37:21.602Z,95410
2018-05-04T09:39:49.921Z,95410
2018-05-04T09:42:22.347Z,95415
2018-05-04T09:44:50.461Z,95412
2018-05-04T09:47:18.587Z,95410
2018-05-04T09:49:46.717Z,95410
2018-05-04T09:52:14.855Z,95412
2018-05-04T09:54:43.778Z,95410
2018-05-04T09:57:11.923Z,95414
2018-05-04T09:59:40.024Z,95408
2018-05-04T10:02:08.151Z,95409
2018-05-04T10:04:36.267Z,95416
2018-05-04T10:07:04.384Z,95408
2018-05-04T10:09:32.594Z,95410
2018-05-04T10:12:01.555Z,95412
2018-05-04T10:14:29.683Z,95420
2018-05-04T10:16:57.796Z,95415
2018-05-04T10:19:25.917Z,95423
2018-05-04T10:21:54.045Z,95426
2018-05-04T10:24:22.176Z,95411
2018-05-04T10:26:50.311Z,95415
2018-05-04T10:29:19.184Z,95416
2018-05-04T10:31:47.793Z,95422
2018-05-04T10:34:15.923Z,95411
2018-05-04T10:36:44.218Z,95410
2018-05-04T10:39:12.373Z,95409
2018-05-04T10:41:40.484Z,95411
2018-05-04T10:44:08.597Z,95406
2018-05-04T10:46:36.769Z,95401
2018-05-04T10:49:04.879Z,95417
2018-05-04T10:51:32.997Z,95401
2018-05-04T10:54:01.953Z,95403
2018-05-04T10:56:30.232Z,95407
2018-05-04T10:58:58.425Z,95407
2018-05-04T11:01:26.987Z,95406
2018-05-04T11:03:55.087Z,95410
2018-05-04T11:06:23.484Z,95400
2018-05-04T11:08:51.607Z,95414
2018-05-04T11:11:19.724Z,95412
2018-05-04T11:13:47.849Z,95413
2018-05-04T11:16:15.940Z,95414
2018-05-04T11:18:44.054Z,95414
2018-05-04T11:21:12.181Z,95410
2018-05-04T11:23:40.306Z,95406
2018-05-04T11:26:08.417Z,95404
2018-05-04T11:28:36.539Z,95406
2018-05-04T11:31:04.709Z,95410
2018-05-04T11:33:32.933Z,95420
2018-05-04T11:36:01.238Z,95409
2018-05-04T11:38:29.471Z,95412
2018-05-04T11:40:57.622Z,95415
2018-05-04T11:43:25.867Z,95416
2018-05-04T11:45:54.157Z,95423
2018-05-04T11:48:28.298Z,95422
2018-05-04T11:50:57.754Z,95427
2018-05-04T11:53:26.970Z,95430
2018-05-04T11:55:55.378Z,95432
2018-05-04T11:58:24.258Z,95433
2018-05-04T12:00:52.451Z,95432
2018-05-04T12:03:22.033Z,95429
2018-05-04T12:05:50.212Z,95433
2018-05-04T12:08:18.356Z,95432
2018-05-04T12:10:47.191Z,95434
2018-05-04T12:13:15.322Z,95431
2018-05-04T12:15:44.051Z,95435
2018-05-04T12:18:12.924Z,95438
2018-05-04T12:20:41.393Z,95435
2018-05-04T12:23:09.737Z,95436
2018-05-04T12:25:37.897Z,95426
2018-05-04T12:28:06.038Z,95436
2018-05-04T12:30:34.190Z,95427
2018-05-04T12:33:02.377Z,95432
2018-05-04T12:35:30.999Z,95426
2018-05-04T12:37:59.153Z,95425
2018-05-04T12:40:27.547Z,95426
2018-05-04T12:42:55.679Z,95427
2018-05-04T12:45:23.836Z,95435
2018-05-04T12:47:52.087Z,95427
2018-05-04T12:50:20.268Z,95426
2018-05-04T12:52:48.503Z,95429
2018-05-04T12:55:17.155Z,95425
2018-05-04T12:57:45.255Z,95423
2018-05-04T13:00:13.396Z,95421
2018-05-04T13:02:41.588Z,95413
2018-05-04T13:05:09.774Z,95411
2018-05-04T13:07:37.923Z,95412
2018-05-04T13:10:06.070Z,95408
2018-05-04T13:12:34.162Z,95415
2018-05-04T13:15:02.989Z,95400
2018-05-04T13:17:31.143Z,95397
2018-05-04T13:19:59.315Z,95393
2018-05-04T13:22:27.498Z,95392
2018-05-04T13:24:55.718Z,95389
2018-05-04T13:27:23.843Z,95388
2018-05-04T13:29:52.053Z,95389
2018-05-04T13:32:20.260Z,95385
2018-05-04T13:34:48.370Z,95378
2018-05-04T13:37:16.478Z,95380
2018-05-04T13:39:44.613Z,95384
2018-05-04T13:42:12.719Z,95381
2018-05-04T13:44:40.911Z,95386
2018-05-04T13:47:09.050Z,95387
2018-05-04T13:49:37.248Z,95381
2018-05-04T13:52:05.390Z,95377
2018-05-04T13:54:33.492Z,95383
2018-05-04T13:57:01.627Z,95374
2018-05-04T13:59:30.247Z,95370
2018-05-04T14:01:59.139Z,95372
2018-05-04T14:04:27.275Z,95384
2018-05-04T14:06:55.399Z,95371
2018-05-04T14:09:23.538Z,95369
2018-05-04T14:11:51.657Z,95363
2018-05-04T14:14:19.784Z,95361
2018-05-04T14:16:47.921Z,95362
2018-05-04T14:19:16.091Z,95357
2018-05-04T14:21:44.200Z,95360
2018-05-04T14:24:12.314Z,95355
2018-05-04T14:26:40.420Z,95355
2018-05-04T14:29:08.542Z,95360
2018-05-04T14:44:31.782Z,95366
2018-05-04T14:47:00.027Z,95365
2018-05-04T14:49:28.883Z,95355
2018-05-04T14:51:57.009Z,95357
2018-05-04T14:54:25.123Z,95369
2018-05-04T14:56:53.243Z,95365
2018-05-04T14:59:21.353Z,95366
2018-05-04T15:01:49.594Z,95369
2018-05-04T15:04:17.808Z,95363
2018-05-04T15:06:46.707Z,95364
2018-05-04T15:09:14.832Z,95364
2018-05-04T15:11:42.947Z,95368
2018-05-04T15:14:11.073Z,95366
2018-05-04T15:16:39.190Z,95366
2018-05-04T15:19:07.323Z,95370
2018-05-04T15:21:35.447Z,95375
2018-05-04T15:24:03.566Z,95366
2018-05-04T15:26:31.695Z,95366
2018-05-04T15:29:00.560Z,95369
2018-05-04T15:31:29.480Z,95365
2018-05-04T15:33:57.948Z,95375
2018-05-04T15:36:26.051Z,95371
2018-05-04T15:38:54.200Z,95367
2018-05-04T15:41:22.348Z,95379
2018-05-04T15:43:51.249Z,95377
2018-05-04T15:46:19.348Z,95392
2018-05-04T15:48:52.977Z,95391
2018-05-04T15:51:26.661Z,95385
2018-05-04T15:53:54.801Z,95385
2018-05-04T15:56:22.942Z,95388
2018-05-04T15:58:51.042Z,95391
2018-05-04T16:01:19.225Z,95388
2018-05-04T16:03:47.422Z,95391
2018-05-04T16:06:15.615Z,95376
2018-05-04T16:08:43.718Z,95389
2018-05-04T16:11:11.807Z,95392
2018-05-04T16:13:40.572Z,95391
2018-05-04T16:16:08.691Z,95395
2018-05-04T16:18:36.861Z,95400
2018-05-04T16:21:05.043Z,95397
2018-05-04T16:23:33.155Z,95398
2018-05-04T16:26:01.312Z,95394
2018-05-04T16:28:30.025Z,95402
2018-05-04T16:30:58.153Z,95404
2018-05-04T16:33:26.404Z,95403
2018-05-04T16:35:54.661Z,95414
2018-05-04T16:38:24.236Z,95410
2018-05-04T16:40:52.360Z,95406
2018-05-04T16:43:20.483Z,95408
2018-05-04T16:45:48.622Z,95419
2018-05-04T16:48:22.154Z,95415
2018-05-04T16:50:50.283Z,95418
2018-05-04T16:53:18.436Z,95418
2018-05-04T16:55:46.573Z,95417
2018-05-04T16:58:14.701Z,95426
2018-05-04T17:00:42.853Z,95420
2018-05-04T17:03:11.110Z,95413
2018-05-04T17:05:39.315Z,95418
2018-05-04T17:08:07.865Z,95414
2018-05-04T17:10:35.985Z,95421
2018-05-04T17:13:04.117Z,95419
2018-05-04T17:15:32.266Z,95410
2018-05-04T17:18:00.419Z,95411
2018-05-04T17:20:28.586Z,95410
2018-05-04T17:22:57.190Z,95419
2018-05-04T17:25:25.345Z,95412
2018-05-04T17:27:53.591Z,95409
2018-05-04T17:30:22.172Z,95419
2018-05-04T17:32:51.159Z,95415
2018-05-04T17:35:20.080Z,95426
2018-05-04T17:37:48.896Z,95426
2018-05-04T17:40:17.062Z,95437
2018-05-04T17:42:45.182Z,95433
2018-05-04T17:45:13.364Z,95437
2018-05-04T17:47:42.251Z,95435
2018-05-04T17:50:11.167Z,95436
2018-05-04T17:52:39.313Z,95446
2018-05-04T17:55:07.547Z,95434
2018-05-04T17:57:35.596Z,95449
2018-05-04T18:00:03.707Z,95446
2018-05-04T18:02:31.849Z,95451
2018-05-04T18:04:59.986Z,95462
2018-05-04T18:07:28.129Z,95459
2018-05-04T18:09:56.322Z,95460
2018-05-04T18:12:25.191Z,95470
2018-05-04T18:14:53.323Z,95469
2018-05-04T18:17:21.628Z,95475
2018-05-04T18:19:49.774Z,95482
2018-05-04T18:22:17.933Z,95473
2018-05-04T18:24:50.393Z,95484
2018-05-04T18:27:18.501Z,95476
2018-05-04T18:29:46.713Z,95481
2018-05-04T18:32:14.995Z,95476
2018-05-04T18:34:43.226Z,95476
2018-05-04T18:37:11.424Z,95478
2018-05-04T18:39:39.667Z,95480
2018-05-04T18:42:07.924Z,95484
2018-05-04T18:44:36.042Z,95496
2018-05-04T18:47:04.162Z,95495
2018-05-04T18:49:33.074Z,95502
2018-05-04T18:52:01.198Z,95495
2018-05-04T18:54:29.340Z,95504
2018-05-04T18:56:57.462Z,95503
2018-05-04T18:59:26.373Z,95499
2018-05-04T19:01:54.525Z,95503
2018-05-04T19:04:22.691Z,95508
2018-05-04T19:06:51.333Z,95511
2018-05-04T19:09:19.627Z,95523
2018-05-04T19:11:47.883Z,95529
2018-05-04T19:14:16.135Z,95532
2018-05-04T19:16:44.381Z,95523
2018-05-04T19:19:12.535Z,95530
2018-05-04T19:21:40.697Z,95529
2018-05-04T19:24:08.818Z,95537
2018-05-04T19:26:36.949Z,95530
2018-05-04T19:29:05.789Z,95545
2018-05-04T19:31:33.913Z,95533
2018-05-04T19:34:02.065Z,95536
2018-05-04T19:36:30.339Z,95528
2018-05-04T19:38:58.457Z,95539
2018-05-04T19:41:26.599Z,95537
2018-05-04T19:43:54.704Z,95538
2018-05-04T19:46:22.852Z,95537
2018-05-04T19:48:51.017Z,95546
2018-05-04T19:51:19.130Z,95532
2018-05-04T19:53:48.026Z,95525
2018-05-04T19:56:16.148Z,95528
2018-05-04T19:58:44.356Z,95528
2018-05-04T20:01:12.464Z,95532
2018-05-04T20:03:40.584Z,95528
2018-05-04T20:06:08.698Z,95534
2018-05-04T20:08:36.828Z,95530
2018-05-04T20:11:04.943Z,95527
2018-05-04T20:13:33.841Z,95523
2018-05-04T20:16:01.974Z,95531
2018-05-04T20:18:30.085Z,95525
2018-05-04T20:20:58.198Z,95531
2018-05-04T20:23:26.321Z,95527
2018-05-04T20:25:55.233Z,95530
2018-05-04T20:28:23.380Z,95529
2018-05-04T20:30:51.503Z,95525
2018-05-04T20:33:20.244Z,95525
2018-05-04T20:35:49.125Z,95530
2018-05-04T20:38:17.257Z,95535
2018-05-04T20:40:45.402Z,95529
2018-05-04T20:43:13.507Z,95526
2018-05-04T20:45:41.644Z,95525
2018-05-04T20:48:09.757Z,95536
2018-05-04T20:50:37.865Z,95530
2018-05-04T20:53:06.020Z,95527
2018-05-04T20:55:34.282Z,95527
2018-05-04T20:58:02.426Z,95525
2018-05-04T21:00:30.618Z,95540
2018-05-04T21:02:58.738Z,95536
2018-05-04T21:05:27.622Z,95536
2018-05-04T21:07:55.728Z,95557
2018-05-04T21:10:23.848Z,95558
2018-05-04T21:12:51.977Z,95561
2018-05-04T21:15:20.250Z,95559
2018-05-04T21:17:48.428Z,95559
2018-05-04T21:20:16.544Z,95555
2018-05-04T21:22:44.661Z,95567
2018-05-04T21:25:12.801Z,95568
2018-05-04T21:27:40.919Z,95567
2018-05-04T21:30:09.023Z,95576
2018-05-04T21:32:37.153Z,95572
2018-05-04T21:35:05.289Z,95574
2018-05-04T21:37:33.455Z,95575
2018-05-04T21:40:01.713Z,95578
2018-05-04T21:42:29.934Z,95571
2018-05-04T21:44:58.852Z,95577
2018-05-04T21:47:27.179Z,95574
2018-05-04T21:49:55.304Z,95571
2018-05-04T21:52:23.421Z,95574
2018-05-04T21:54:51.552Z,95576
2018-05-04T21:57:19.665Z,95576
2018-05-04T21:59:47.831Z,95575
2018-05-04T22:02:16.627Z,95576
2018-05-04T22:04:44.804Z,95574
2018-05-04T22:07:12.882Z,95583
2018-05-04T22:09:40.987Z,95577
2018-05-04T22:12:09.129Z,95571
2018-05-04T22:14:37.238Z,95573
2018-05-04T22:17:05.362Z,95574
2018-05-04T22:19:33.474Z,95587
2018-05-04T22:22:01.594Z,95585
2018-05-04T22:24:29.982Z,95588
2018-05-04T22:26:58.094Z,95587
2018-05-04T22:29:26.223Z,95586
2018-05-04T22:31:54.347Z,95593
2018-05-04T22:34:22.461Z,95583
2018-05-04T22:36:50.584Z,95577
2018-05-04T22:39:18.753Z,95582
2018-05-04T22:41:46.884Z,95577
2018-05-04T22:44:15.128Z,95584
2018-05-04T22:46:43.325Z,95582
2018-05-04T22:49:11.467Z,95574
2018-05-04T22:51:39.584Z,95585
2018-05-04T22:54:07.706Z,95586
2018-05-04T22:56:35.853Z,95580
2018-05-04T22:59:03.965Z,95587
2018-05-04T23:01:32.083Z,95588
2018-05-04T23:04:00.855Z,95583
2018-05-04T23:06:29.002Z,95580
2018-05-04T23:08:57.116Z,95584
2018-05-04T23:11:25.262Z,95579
2018-05-04T23:13:53.380Z,95588
2018-05-04T23:16:21.496Z,95581
2018-05-04T23:18:49.648Z,95582
2018-05-04T23:21:17.884Z,95586
2018-05-04T23:23:46.051Z,95589
2018-05-04T23:26:14.181Z,95590
2018-05-04T23:28:42.371Z,95591
2018-05-04T23:31:10.527Z,95586
2018-05-04T23:33:38.653Z,95593
2018-05-04T23:36:06.767Z,95584
2018-05-04T23:38:34.915Z,95576
2018-05-04T23:41:03.865Z,95582
2018-05-04T23:43:32.026Z,95591
2018-05-04T23:46:00.168Z,95588
2018-05-04T23:48:28.313Z,95598
2018-05-04T23:50:56.450Z,95598
2018-05-04T23:53:24.578Z,95592
2018-05-04T23:55:52.720Z,95585
2018-05-04T23:58:20.824Z,95587
